Time;durP1;ratioP1;P1;durP2;ratioP2;P2;SDS_P1;SDS_P2;PMS_P1;PMS_P2;Temp;Humidity;BMP_temperature;BMP_pressure;BME280_temperature;BME280_humidity;BME280_pressure;Samples;Min_cycle;Max_cycle;Signal;HPM_P1;HPM_P2
2021/06/25 00:02:05;;;;;;;5.20;4.70;;;14.30;98.10;;;;;;4780715;29;20464;-76
2021/06/25 00:04:32;;;;;;;5.70;5.20;;;14.20;98.20;;;;;;4761676;29;20039;-76
2021/06/25 00:06:58;;;;;;;5.72;4.60;;;14.20;98.20;;;;;;4778867;29;20681;-76
2021/06/25 00:09:25;;;;;;;5.18;4.72;;;14.10;98.20;;;;;;4778152;29;20070;-77
2021/06/25 00:11:53;;;;;;;6.57;5.93;;;14.10;98.20;;;;;;4764897;29;20051;-77
2021/06/25 00:14:23;;;;;;;7.47;5.95;;;14.10;98.50;;;;;;4778720;29;20402;-76
2021/06/25 00:16:51;;;;;;;6.45;5.88;;;14.00;98.30;;;;;;4778665;29;20491;-77
2021/06/25 00:19:18;;;;;;;10.57;5.88;;;14.00;98.20;;;;;;4760706;29;20042;-77
2021/06/25 00:21:45;;;;;;;6.90;6.20;;;14.00;98.20;;;;;;4779844;29;20051;-77
2021/06/25 00:24:12;;;;;;;8.23;6.20;;;13.90;98.00;;;;;;4767168;29;20833;-76
2021/06/25 00:26:39;;;;;;;8.07;7.35;;;13.90;97.90;;;;;;4748457;29;20054;-76
2021/06/25 00:29:05;;;;;;;7.72;5.70;;;13.80;97.80;;;;;;4762585;29;20082;-77
2021/06/25 00:31:32;;;;;;;6.38;5.78;;;13.80;97.80;;;;;;4762514;29;20043;-77
2021/06/25 00:33:58;;;;;;;6.72;6.05;;;13.70;97.70;;;;;;4777050;29;20066;-77
2021/06/25 00:36:25;;;;;;;6.38;5.45;;;13.80;97.70;;;;;;4748372;29;20054;-77
2021/06/25 00:38:59;;;;;;;9.10;6.22;;;13.70;97.60;;;;;;4783771;29;20043;-82
2021/06/25 00:41:26;;;;;;;5.43;4.97;;;13.70;97.60;;;;;;4761646;29;20510;-83
2021/06/25 00:43:53;;;;;;;8.43;5.88;;;13.60;97.50;;;;;;4775017;29;20051;-82
2021/06/25 00:46:19;;;;;;;5.40;4.78;;;13.60;97.40;;;;;;4789464;29;20070;-82
2021/06/25 00:48:46;;;;;;;7.85;6.22;;;13.60;97.40;;;;;;4790603;29;20047;-82
2021/06/25 00:51:13;;;;;;;6.28;5.47;;;13.50;97.50;;;;;;4788742;29;20857;-82
2021/06/25 00:53:41;;;;;;;5.93;5.32;;;13.40;97.60;;;;;;4772808;29;20047;-80
2021/06/25 00:56:12;;;;;;;7.55;5.45;;;13.40;97.70;;;;;;4788037;29;20055;-81
2021/06/25 00:58:39;;;;;;;8.70;6.38;;;13.40;97.80;;;;;;4775952;29;20065;-82
2021/06/25 01:01:06;;;;;;;6.25;5.60;;;13.30;97.90;;;;;;4765585;29;20047;-82
2021/06/25 01:03:33;;;;;;;6.80;5.75;;;13.30;98.00;;;;;;4758806;29;20050;-82
2021/06/25 01:06:00;;;;;;;6.13;5.63;;;13.20;98.20;;;;;;4789676;29;20046;-82
2021/06/25 01:08:27;;;;;;;7.37;6.67;;;13.10;98.30;;;;;;4728052;29;1408013;-82
2021/06/25 01:10:54;;;;;;;6.95;6.25;;;13.00;98.50;;;;;;4786430;29;20070;-82
2021/06/25 01:13:21;;;;;;;10.25;6.55;;;13.00;98.50;;;;;;4792737;29;20047;-82
2021/06/25 01:15:48;;;;;;;7.35;6.65;;;13.00;98.70;;;;;;4789528;29;20059;-82
2021/06/25 01:18:14;;;;;;;8.32;6.97;;;12.90;98.90;;;;;;4790425;29;20790;-82
2021/06/25 01:20:41;;;;;;;6.05;5.47;;;12.90;98.90;;;;;;4786896;29;20055;-82
2021/06/25 01:23:07;;;;;;;6.22;5.63;;;12.80;98.80;;;;;;4789585;29;20080;-81
2021/06/25 01:25:35;;;;;;;7.72;6.78;;;12.70;98.80;;;;;;4791841;29;20053;-82
2021/06/25 01:28:05;;;;;;;8.20;7.40;;;12.70;98.90;;;;;;4782902;29;20066;-81
2021/06/25 01:30:36;;;;;;;8.40;7.60;;;12.60;99.00;;;;;;4783833;29;20039;-81
2021/06/25 01:33:04;;;;;;;9.15;8.10;;;12.60;99.10;;;;;;4790005;29;20042;-82
2021/06/25 01:35:31;;;;;;;8.90;7.88;;;12.50;99.20;;;;;;4790628;29;20047;-82
2021/06/25 01:38:10;;;;;;;8.93;8.13;;;12.50;99.30;;;;;;4790498;29;20043;-82
2021/06/25 01:40:37;;;;;;;9.38;8.43;;;12.40;99.40;;;;;;4786306;29;20041;-82
2021/06/25 01:43:05;;;;;;;9.30;8.40;;;12.40;99.50;;;;;;4776709;29;20043;-82
2021/06/25 01:45:33;;;;;;;9.38;7.43;;;12.30;99.50;;;;;;4790345;29;20051;-82
2021/06/25 01:48:01;;;;;;;10.65;8.70;;;12.20;99.60;;;;;;4773968;29;20051;-82
2021/06/25 01:50:36;;;;;;;8.90;7.90;;;12.20;99.60;;;;;;4788788;29;20043;-82
2021/06/25 01:53:04;;;;;;;10.10;9.10;;;12.20;99.60;;;;;;4793222;29;20034;-82
2021/06/25 01:55:41;;;;;;;9.27;8.48;;;12.20;99.70;;;;;;4780740;29;20046;-82
2021/06/25 01:58:14;;;;;;;9.23;8.35;;;12.10;99.80;;;;;;4788112;29;20055;-82
2021/06/25 02:01:03;;;;;;;9.50;8.50;;;12.00;99.90;;;;;;4782447;29;20495;-82
2021/06/25 02:03:30;;;;;;;10.00;9.02;;;12.00;99.90;;;;;;4783813;29;20039;-82
2021/06/25 02:05:57;;;;;;;9.35;8.02;;;11.90;99.90;;;;;;4783100;29;20069;-82
2021/06/25 02:08:23;;;;;;;8.32;7.47;;;11.80;99.90;;;;;;4769440;29;20109;-82
2021/06/25 02:10:51;;;;;;;10.20;9.05;;;11.80;99.90;;;;;;4771731;29;20085;-81
2021/06/25 02:13:18;;;;;;;10.27;9.27;;;11.80;99.90;;;;;;4775388;29;20062;-82
2021/06/25 02:15:44;;;;;;;11.80;10.05;;;11.70;99.90;;;;;;4784894;29;20054;-82
2021/06/25 02:18:11;;;;;;;10.32;9.18;;;11.70;99.90;;;;;;4784469;29;20138;-82
2021/06/25 02:20:38;;;;;;;10.35;9.35;;;11.60;99.90;;;;;;4785063;29;20059;-82
2021/06/25 02:23:04;;;;;;;11.27;9.95;;;11.60;99.90;;;;;;4780942;29;20483;-82
2021/06/25 02:25:30;;;;;;;12.07;10.88;;;11.60;99.90;;;;;;4769640;29;20040;-82
2021/06/25 02:27:57;;;;;;;14.30;10.65;;;11.50;99.90;;;;;;4784483;29;20415;-82
2021/06/25 02:30:24;;;;;;;11.73;10.50;;;11.50;99.90;;;;;;4770026;29;20047;-81
2021/06/25 02:32:50;;;;;;;11.07;10.07;;;11.50;99.90;;;;;;4786515;29;20058;-81
2021/06/25 02:35:17;;;;;;;11.02;9.90;;;11.40;99.90;;;;;;4785646;29;20070;-82
2021/06/25 02:37:44;;;;;;;11.73;10.23;;;11.40;99.90;;;;;;4788873;29;20062;-82
2021/06/25 02:40:12;;;;;;;12.02;11.02;;;11.40;99.90;;;;;;4789893;29;20570;-82
2021/06/25 02:42:38;;;;;;;11.80;9.95;;;11.30;99.90;;;;;;4770190;29;20039;-82
2021/06/25 02:45:07;;;;;;;12.15;10.95;;;11.40;99.90;;;;;;4785187;29;20139;-81
2021/06/25 02:47:34;;;;;;;11.25;10.15;;;11.30;99.90;;;;;;4786582;29;20150;-82
2021/06/25 02:50:01;;;;;;;12.23;11.02;;;11.30;99.90;;;;;;4769904;29;20055;-82
2021/06/25 02:52:28;;;;;;;10.90;9.80;;;11.20;99.90;;;;;;4792447;29;20063;-81
2021/06/25 02:54:54;;;;;;;13.93;12.57;;;11.20;99.90;;;;;;4776648;29;20070;-81
2021/06/25 02:57:21;;;;;;;13.80;11.82;;;11.20;99.90;;;;;;4786815;29;20067;-82
2021/06/25 02:59:47;;;;;;;14.10;12.70;;;11.20;99.90;;;;;;4774462;29;20035;-82
2021/06/25 03:02:14;;;;;;;14.10;11.75;;;11.10;99.90;;;;;;4770243;29;20031;-81
2021/06/25 03:04:40;;;;;;;12.45;11.20;;;11.10;99.90;;;;;;4767759;29;20050;-81
2021/06/25 03:07:07;;;;;;;13.07;11.77;;;11.10;99.90;;;;;;4785810;29;20078;-81
2021/06/25 03:09:33;;;;;;;13.30;11.98;;;11.10;99.90;;;;;;4788541;29;20066;-81
2021/06/25 03:12:00;;;;;;;11.35;10.35;;;11.00;99.90;;;;;;4787011;29;20064;-81
2021/06/25 03:14:26;;;;;;;12.73;11.13;;;11.00;99.90;;;;;;4771110;29;20039;-81
2021/06/25 03:16:53;;;;;;;10.85;9.63;;;11.00;99.90;;;;;;4788171;29;20051;-81
2021/06/25 03:19:19;;;;;;;11.27;10.07;;;10.90;99.90;;;;;;4744624;29;20048;-82
2021/06/25 03:21:46;;;;;;;10.88;9.77;;;10.90;99.90;;;;;;4790028;29;20046;-82
2021/06/25 03:24:12;;;;;;;11.18;10.02;;;10.80;99.90;;;;;;4788928;29;20050;-82
2021/06/25 03:26:39;;;;;;;11.88;10.77;;;10.70;99.90;;;;;;4777476;29;20507;-81
2021/06/25 03:29:06;;;;;;;13.35;11.80;;;10.80;99.90;;;;;;4787936;29;20542;-82
2021/06/25 03:31:33;;;;;;;12.43;11.23;;;10.80;99.90;;;;;;4791166;29;20051;-84
2021/06/25 03:33:59;;;;;;;10.32;9.43;;;10.80;99.90;;;;;;4791758;29;20051;-80
2021/06/25 03:36:26;;;;;;;11.23;10.07;;;10.80;99.90;;;;;;4777383;29;20424;-83
2021/06/25 03:38:53;;;;;;;15.50;12.18;;;10.80;99.90;;;;;;4788983;29;20368;-83
2021/06/25 03:41:20;;;;;;;14.05;12.50;;;10.80;99.90;;;;;;4788702;29;20063;-84
2021/06/25 03:43:46;;;;;;;14.05;12.65;;;10.80;99.90;;;;;;4777909;29;20149;-83
2021/06/25 03:46:13;;;;;;;12.40;11.10;;;10.90;99.90;;;;;;4759450;29;20054;-84
2021/06/25 03:48:39;;;;;;;14.48;12.98;;;10.90;99.90;;;;;;4791656;29;20047;-83
2021/06/25 03:51:06;;;;;;;13.30;11.90;;;10.90;99.90;;;;;;4788865;29;20048;-82
2021/06/25 03:53:32;;;;;;;15.15;12.30;;;11.00;99.90;;;;;;4792402;29;20058;-83
2021/06/25 03:56:11;;;;;;;11.65;10.63;;;11.10;99.90;;;;;;4786045;29;20515;-84
2021/06/25 03:58:49;;;;;;;11.25;10.15;;;11.10;99.90;;;;;;4784803;29;20047;-83
2021/06/25 04:01:19;;;;;;;13.63;12.32;;;11.20;99.90;;;;;;4785646;29;20402;-83
2021/06/25 04:03:45;;;;;;;13.60;12.27;;;11.30;99.90;;;;;;4789216;29;20039;-82
2021/06/25 04:06:12;;;;;;;12.80;11.13;;;11.40;99.90;;;;;;4792681;29;20050;-82
2021/06/25 04:08:39;;;;;;;15.55;12.93;;;11.50;99.90;;;;;;4776648;29;20043;-82
2021/06/25 04:11:05;;;;;;;12.10;10.90;;;11.60;99.90;;;;;;4789396;29;20058;-82
2021/06/25 04:13:34;;;;;;;11.05;9.98;;;11.70;99.90;;;;;;4792358;29;20050;-82
2021/06/25 04:16:01;;;;;;;11.65;10.55;;;11.80;99.90;;;;;;4794931;29;20404;-82
2021/06/25 04:18:27;;;;;;;12.52;10.52;;;12.00;99.90;;;;;;4773515;29;20519;-82
2021/06/25 04:20:55;;;;;;;13.07;11.82;;;12.10;99.90;;;;;;4773924;29;20039;-82
2021/06/25 04:23:22;;;;;;;13.23;11.82;;;12.30;99.90;;;;;;4765552;29;20038;-82
2021/06/25 04:25:48;;;;;;;12.95;11.57;;;12.50;99.90;;;;;;4789545;29;20055;-82
2021/06/25 04:28:15;;;;;;;12.07;10.88;;;12.70;99.90;;;;;;4793182;29;20053;-82
2021/06/25 04:30:43;;;;;;;13.13;11.57;;;12.90;99.90;;;;;;4788804;29;20039;-83
2021/06/25 04:33:13;;;;;;;12.30;11.05;;;13.10;99.90;;;;;;4774467;29;20071;-85
2021/06/25 04:35:41;;;;;;;12.25;11.00;;;13.30;99.90;;;;;;4773639;29;20047;-83
2021/06/25 04:38:08;;;;;;;12.25;11.15;;;13.50;99.90;;;;;;4790745;29;20050;-83
2021/06/25 04:40:39;;;;;;;13.85;12.48;;;13.70;99.90;;;;;;4779092;29;20070;-83
2021/06/25 04:43:07;;;;;;;13.02;11.75;;;13.80;99.90;;;;;;4777439;29;20035;-83
2021/06/25 04:45:38;;;;;;;12.43;11.23;;;14.00;99.90;;;;;;4793634;29;20039;-83
2021/06/25 04:48:13;;;;;;;12.77;11.45;;;14.10;99.90;;;;;;4792691;29;20600;-83
2021/06/25 04:50:40;;;;;;;13.38;11.98;;;14.30;99.70;;;;;;4776777;29;20047;-83
2021/06/25 04:53:07;;;;;;;13.10;11.73;;;14.50;99.60;;;;;;4792219;29;20055;-83
2021/06/25 04:55:41;;;;;;;15.88;14.38;;;14.60;99.50;;;;;;4793004;29;20091;-83
2021/06/25 04:58:13;;;;;;;20.00;15.63;;;14.70;99.30;;;;;;4773749;29;20058;-83
2021/06/25 05:00:41;;;;;;;14.32;13.05;;;15.00;99.10;;;;;;4791131;29;20059;-83
2021/06/25 05:03:08;;;;;;;16.25;14.60;;;15.20;98.90;;;;;;4789618;29;20054;-83
2021/06/25 05:05:36;;;;;;;16.23;14.50;;;15.40;98.60;;;;;;4774224;29;20056;-83
2021/06/25 05:08:04;;;;;;;16.42;14.73;;;15.50;98.30;;;;;;4758490;29;20685;-83
2021/06/25 05:10:31;;;;;;;19.92;17.38;;;15.70;98.10;;;;;;4775165;29;20058;-83
2021/06/25 05:12:58;;;;;;;16.48;14.88;;;15.80;97.80;;;;;;4791605;29;20081;-83
2021/06/25 05:15:24;;;;;;;17.00;15.27;;;15.90;97.60;;;;;;4775904;29;20415;-83
2021/06/25 05:17:51;;;;;;;19.90;17.33;;;16.00;97.50;;;;;;4788407;29;20047;-83
2021/06/25 05:20:19;;;;;;;19.77;16.98;;;16.20;97.20;;;;;;4776177;29;20053;-83
2021/06/25 05:22:46;;;;;;;15.57;13.88;;;16.20;96.80;;;;;;4787735;29;20487;-83
2021/06/25 05:25:13;;;;;;;17.00;15.25;;;16.20;96.70;;;;;;4790135;29;20043;-83
2021/06/25 05:27:40;;;;;;;18.70;16.50;;;16.20;96.60;;;;;;4774378;29;20414;-83
2021/06/25 05:30:08;;;;;;;16.20;14.45;;;16.10;96.30;;;;;;4787509;29;20059;-83
2021/06/25 05:32:34;;;;;;;17.77;15.50;;;16.10;96.30;;;;;;4794439;29;20494;-83
2021/06/25 05:35:02;;;;;;;16.08;14.48;;;16.10;96.30;;;;;;4773346;29;20048;-83
2021/06/25 05:37:29;;;;;;;17.73;15.85;;;16.10;96.10;;;;;;4790249;29;20045;-84
2021/06/25 05:39:56;;;;;;;17.55;15.85;;;16.00;95.90;;;;;;4789106;29;20127;-83
2021/06/25 05:42:22;;;;;;;15.38;13.77;;;16.00;95.90;;;;;;4788115;29;20052;-83
2021/06/25 05:44:50;;;;;;;14.63;13.23;;;16.00;95.90;;;;;;4791460;29;20157;-83
2021/06/25 05:47:16;;;;;;;16.13;14.43;;;16.10;95.90;;;;;;4787224;29;20047;-83
2021/06/25 05:49:43;;;;;;;16.95;15.10;;;16.20;95.80;;;;;;4772776;29;20411;-83
2021/06/25 05:52:09;;;;;;;17.38;15.55;;;16.30;95.50;;;;;;4789955;29;20058;-83
2021/06/25 05:54:36;;;;;;;15.68;13.35;;;16.40;95.30;;;;;;4775945;29;20055;-82
2021/06/25 05:57:02;;;;;;;16.08;14.38;;;16.60;95.00;;;;;;4776955;29;20059;-83
2021/06/25 05:59:30;;;;;;;15.70;14.20;;;16.70;94.60;;;;;;4783418;29;20055;-83
2021/06/25 06:01:56;;;;;;;16.17;13.75;;;16.70;94.20;;;;;;4774575;29;20050;-83
2021/06/25 06:04:23;;;;;;;15.27;13.50;;;16.80;94.00;;;;;;4785015;29;20047;-83
2021/06/25 06:06:49;;;;;;;14.43;12.35;;;16.80;93.80;;;;;;4788957;29;20038;-83
2021/06/25 06:09:16;;;;;;;11.85;10.45;;;16.90;93.30;;;;;;4785594;29;20059;-83
2021/06/25 06:11:42;;;;;;;13.25;10.43;;;16.90;93.00;;;;;;4788776;29;20043;-83
2021/06/25 06:14:09;;;;;;;10.95;9.85;;;17.00;92.80;;;;;;4771213;29;20486;-83
2021/06/25 06:16:35;;;;;;;10.32;9.18;;;17.10;92.60;;;;;;4786668;29;20383;-84
2021/06/25 06:19:03;;;;;;;10.07;9.07;;;17.30;92.20;;;;;;4784229;29;20114;-83
2021/06/25 06:31:10;;;;;;;16.75;9.20;;;17.30;91.80;;;;;;4783959;29;20070;-83
2021/06/25 06:32:47;;;;;;;10.02;8.02;;;17.60;90.50;;;;;;4772111;29;20061;-82
2021/06/25 06:35:14;;;;;;;10.82;9.18;;;17.60;90.00;;;;;;4784504;29;20051;-81
2021/06/25 06:37:48;;;;;;;10.82;9.73;;;17.60;89.90;;;;;;4772488;29;20054;-81
2021/06/25 06:40:19;;;;;;;10.95;9.85;;;17.70;89.90;;;;;;4759185;29;20513;-81
2021/06/25 06:42:47;;;;;;;10.77;9.65;;;17.80;89.90;;;;;;4756893;29;20508;-80
2021/06/25 06:45:16;;;;;;;11.30;8.82;;;17.80;88.90;;;;;;4784858;29;20062;-81
2021/06/25 06:47:43;;;;;;;11.52;7.93;;;17.80;88.70;;;;;;4788907;29;20051;-81
2021/06/25 06:50:10;;;;;;;8.65;7.85;;;17.90;88.30;;;;;;4769574;29;20055;-82
2021/06/25 06:52:37;;;;;;;10.15;8.35;;;17.90;87.90;;;;;;4755118;29;20043;-82
2021/06/25 06:55:04;;;;;;;9.75;8.80;;;18.00;88.00;;;;;;4779672;29;20048;-82
2021/06/25 06:57:30;;;;;;;8.88;7.88;;;18.20;87.90;;;;;;4783863;29;20059;-82
2021/06/25 06:59:57;;;;;;;10.40;9.13;;;18.40;87.70;;;;;;4771748;29;20043;-82
2021/06/25 07:02:23;;;;;;;10.32;9.32;;;18.50;87.00;;;;;;4782165;29;20042;-83
2021/06/25 07:04:50;;;;;;;10.18;8.95;;;18.50;86.60;;;;;;4784323;29;20066;-81
2021/06/25 07:07:17;;;;;;;12.10;9.40;;;18.50;86.30;;;;;;4785177;29;20074;-81
2021/06/25 07:09:43;;;;;;;12.65;10.27;;;18.50;86.60;;;;;;4769365;29;20079;-81
2021/06/25 07:12:10;;;;;;;9.05;8.15;;;18.60;86.10;;;;;;4785775;29;20061;-81
2021/06/25 07:14:36;;;;;;;11.95;9.43;;;18.60;86.20;;;;;;4780557;29;20047;-82
2021/06/25 07:17:03;;;;;;;10.77;9.40;;;18.70;86.70;;;;;;4785610;29;20062;-81
2021/06/25 07:19:30;;;;;;;11.70;10.23;;;19.00;85.80;;;;;;4787349;29;20058;-81
2021/06/25 07:21:56;;;;;;;17.75;10.95;;;19.30;85.30;;;;;;4780914;29;20042;-81
2021/06/25 07:24:23;;;;;;;16.38;12.57;;;19.50;84.60;;;;;;4782712;29;20051;-82
2021/06/25 07:26:49;;;;;;;11.40;10.30;;;19.80;83.70;;;;;;4785385;29;20051;-81
2021/06/25 07:29:16;;;;;;;12.25;9.98;;;19.90;83.00;;;;;;4782748;29;20047;-82
2021/06/25 07:31:42;;;;;;;12.82;11.50;;;20.00;82.80;;;;;;4788039;29;20050;-81
2021/06/25 07:34:09;;;;;;;14.93;10.93;;;20.10;82.30;;;;;;4768736;29;20051;-81
2021/06/25 07:36:35;;;;;;;11.38;10.15;;;20.10;82.20;;;;;;4784197;29;20057;-81
2021/06/25 07:39:02;;;;;;;11.90;10.70;;;20.20;82.50;;;;;;4771804;29;20051;-81
2021/06/25 07:41:29;;;;;;;12.05;10.85;;;20.40;82.30;;;;;;4769071;29;20062;-81
2021/06/25 07:43:55;;;;;;;14.77;13.23;;;20.60;81.70;;;;;;4770899;29;20059;-81
2021/06/25 07:46:24;;;;;;;14.55;12.23;;;20.80;80.80;;;;;;4752448;29;20039;-81
2021/06/25 07:48:51;;;;;;;12.55;10.85;;;20.90;80.60;;;;;;4781493;29;20070;-81
2021/06/25 07:51:17;;;;;;;15.32;12.00;;;21.00;80.60;;;;;;4785032;29;20143;-81
2021/06/25 07:53:44;;;;;;;13.85;12.38;;;21.20;80.50;;;;;;4787405;29;20059;-80
2021/06/25 07:56:10;;;;;;;14.35;12.38;;;21.30;80.20;;;;;;4753468;29;20039;-81
2021/06/25 07:58:37;;;;;;;13.45;11.40;;;21.40;80.00;;;;;;4785786;29;20043;-80
2021/06/25 08:01:03;;;;;;;15.20;12.27;;;21.30;79.90;;;;;;4766676;29;20035;-80
2021/06/25 08:03:30;;;;;;;15.15;13.55;;;21.30;79.90;;;;;;4760667;29;20518;-80
2021/06/25 08:05:57;;;;;;;16.30;13.13;;;21.20;80.20;;;;;;4783221;29;20055;-80
2021/06/25 08:08:24;;;;;;;18.30;14.95;;;21.10;80.60;;;;;;4782315;29;20190;-80
2021/06/25 08:10:50;;;;;;;17.05;13.85;;;20.90;80.60;;;;;;4779013;29;20111;-78
2021/06/25 08:13:17;;;;;;;15.57;13.43;;;20.80;81.00;;;;;;4761505;29;20054;-77
2021/06/25 08:15:49;;;;;;;14.68;13.18;;;20.70;81.70;;;;;;4775231;29;20051;-77
2021/06/25 08:18:16;;;;;;;18.20;13.25;;;20.70;82.20;;;;;;4772820;29;20040;-77
2021/06/25 08:20:44;;;;;;;18.35;14.55;;;20.70;82.30;;;;;;4776710;29;20046;-77
2021/06/25 08:23:11;;;;;;;16.98;14.25;;;20.80;82.60;;;;;;4771291;29;20036;-77
2021/06/25 08:25:38;;;;;;;16.58;13.25;;;20.80;82.60;;;;;;4777043;29;20183;-78
2021/06/25 08:28:06;;;;;;;14.93;12.90;;;20.70;82.80;;;;;;4762620;29;20047;-78
2021/06/25 08:30:33;;;;;;;17.77;14.65;;;20.70;82.80;;;;;;4778411;29;20039;-78
2021/06/25 08:32:59;;;;;;;19.65;15.00;;;20.50;83.30;;;;;;4773500;29;20055;-80
2021/06/25 08:35:26;;;;;;;17.77;15.85;;;20.40;83.80;;;;;;4781004;29;20043;-79
2021/06/25 08:37:54;;;;;;;20.75;17.25;;;20.30;84.10;;;;;;4778972;29;20046;-77
2021/06/25 08:40:21;;;;;;;21.02;18.75;;;20.30;84.40;;;;;;4785252;29;20051;-81
2021/06/25 08:42:49;;;;;;;20.95;16.50;;;20.20;84.80;;;;;;4784636;29;20058;-77
2021/06/25 08:45:16;;;;;;;23.92;21.05;;;20.10;85.30;;;;;;4776281;29;20039;-78
2021/06/25 08:47:45;;;;;;;24.10;18.85;;;20.00;85.50;;;;;;4765106;29;20035;-78
2021/06/25 08:50:15;;;;;;;23.67;19.65;;;19.90;85.90;;;;;;4777043;29;20043;-77
2021/06/25 08:52:43;;;;;;;20.70;17.13;;;19.80;86.30;;;;;;4750106;29;20055;-78
2021/06/25 08:55:10;;;;;;;20.60;18.50;;;19.80;86.70;;;;;;4777143;29;20039;-77
2021/06/25 08:57:37;;;;;;;23.88;19.42;;;19.90;86.80;;;;;;4762302;29;20047;-76
2021/06/25 09:00:06;;;;;;;20.70;16.25;;;19.90;86.90;;;;;;4776227;29;20050;-78
2021/06/25 09:02:35;;;;;;;26.98;19.58;;;20.00;86.80;;;;;;4772760;29;20044;-78
2021/06/25 09:05:26;;;;;;;23.25;17.40;;;20.10;86.70;;;;;;4773129;29;20039;-79
2021/06/25 09:07:54;;;;;;;18.27;16.35;;;20.30;86.70;;;;;;4778396;29;20048;-78
2021/06/25 09:10:39;;;;;;;22.00;18.13;;;20.40;86.70;;;;;;4774063;29;20078;-78
2021/06/25 09:13:11;;;;;;;21.25;17.85;;;20.40;86.70;;;;;;4780870;29;20062;-78
2021/06/25 09:15:40;;;;;;;22.77;17.02;;;20.40;86.70;;;;;;4779035;29;20051;-78
2021/06/25 09:18:13;;;;;;;24.88;19.88;;;20.40;87.10;;;;;;4762448;29;20039;-79
2021/06/25 09:20:49;;;;;;;22.55;17.25;;;20.30;87.00;;;;;;4780526;29;20039;-78
2021/06/25 09:23:29;;;;;;;24.05;19.27;;;20.30;87.50;;;;;;4782361;29;20047;-77
2021/06/25 09:25:58;;;;;;;21.05;18.30;;;20.30;87.20;;;;;;4781436;29;20530;-77
2021/06/25 09:28:37;;;;;;;20.65;17.90;;;20.30;87.70;;;;;;4776996;29;20054;-78
2021/06/25 09:31:22;;;;;;;19.45;17.35;;;20.40;87.90;;;;;;4779696;29;20058;-76
2021/06/25 09:33:50;;;;;;;18.98;17.00;;;20.40;87.80;;;;;;4780762;29;20039;-77
2021/06/25 09:36:33;;;;;;;20.63;18.23;;;20.40;87.80;;;;;;4779806;29;20055;-77
2021/06/25 09:38:59;;;;;;;;;;;20.50;87.80;;;;;;4780762;29;20053;-78
2021/06/25 09:41:27;;;;;;;23.48;18.17;;;20.70;87.90;;;;;;4780733;29;19917;-76
2021/06/25 09:43:58;;;;;;;20.42;17.20;;;20.70;87.40;;;;;;4779990;29;20396;-78
2021/06/25 09:46:32;;;;;;;19.75;17.65;;;20.90;87.10;;;;;;4792764;29;20061;-79
2021/06/25 09:49:02;;;;;;;19.65;15.20;;;21.00;87.00;;;;;;4765279;29;20039;-78
2021/06/25 09:51:29;;;;;;;20.42;17.73;;;21.10;86.20;;;;;;4776565;29;20051;-78
2021/06/25 09:54:05;;;;;;;20.75;17.63;;;21.30;85.60;;;;;;4778702;29;20582;-78
2021/06/25 09:56:37;;;;;;;16.77;14.98;;;21.40;85.10;;;;;;4781054;29;20051;-77
2021/06/25 09:59:25;;;;;;;20.70;16.48;;;21.50;84.80;;;;;;4774260;29;20448;-78
2021/06/25 10:01:51;;;;;;;18.90;16.92;;;21.50;84.50;;;;;;4772854;29;20047;-77
2021/06/25 10:04:33;;;;;;;18.40;15.73;;;21.50;84.40;;;;;;4773301;29;20046;-77
2021/06/25 10:07:19;;;;;;;18.65;16.42;;;21.50;84.40;;;;;;4778254;29;20050;-78
2021/06/25 10:09:47;;;;;;;19.50;16.13;;;21.50;84.30;;;;;;4778118;29;20066;-77
2021/06/25 10:12:16;;;;;;;20.35;17.65;;;21.60;84.10;;;;;;4778265;29;20043;-77
2021/06/25 10:14:44;;;;;;;18.33;13.85;;;21.70;83.30;;;;;;4777933;29;20050;-78
2021/06/25 10:17:13;;;;;;;17.63;15.77;;;21.70;83.70;;;;;;4762550;29;21015;-78
2021/06/25 10:19:51;;;;;;;14.88;13.35;;;21.80;82.70;;;;;;4775466;29;20407;-78
2021/06/25 10:22:25;;;;;;;16.52;14.48;;;21.90;82.30;;;;;;4775548;29;20039;-76
2021/06/25 10:24:53;;;;;;;18.42;14.95;;;22.10;81.50;;;;;;4777459;29;20043;-77
2021/06/25 10:27:21;;;;;;;18.92;15.50;;;22.20;80.90;;;;;;4778451;29;20127;-78
2021/06/25 10:29:50;;;;;;;19.48;15.60;;;22.40;80.10;;;;;;4778984;29;20046;-77
2021/06/25 10:32:18;;;;;;;19.83;16.30;;;22.50;79.70;;;;;;4775543;29;20039;-77
2021/06/25 10:34:45;;;;;;;18.63;16.10;;;22.40;79.40;;;;;;4777669;29;20043;-77
2021/06/25 10:37:23;;;;;;;14.57;11.45;;;22.40;79.60;;;;;;4777849;29;20050;-78
2021/06/25 10:39:50;;;;;;;15.70;14.20;;;22.30;80.00;;;;;;4777978;29;20062;-77
2021/06/25 10:42:17;;;;;;;22.50;16.58;;;22.10;80.30;;;;;;4776961;29;20399;-77
2021/06/25 10:44:51;;;;;;;18.15;15.10;;;21.90;80.50;;;;;;4775428;29;20039;-77
2021/06/25 10:47:23;;;;;;;18.10;15.30;;;21.80;80.80;;;;;;4761278;29;20553;-77
2021/06/25 10:49:59;;;;;;;21.08;17.33;;;21.60;81.30;;;;;;4773721;29;20905;-78
2021/06/25 10:52:37;;;;;;;18.23;16.15;;;21.30;81.70;;;;;;4777637;29;20036;-77
2021/06/25 10:55:05;;;;;;;18.35;16.48;;;21.20;82.50;;;;;;4780613;29;20038;-78
2021/06/25 10:57:34;;;;;;;18.02;15.40;;;21.20;82.90;;;;;;4777247;29;20039;-78
2021/06/25 11:00:01;;;;;;;17.85;16.02;;;21.30;83.20;;;;;;4762327;29;20043;-76
2021/06/25 11:02:42;;;;;;;18.63;14.63;;;21.50;83.10;;;;;;4781712;29;20047;-80
2021/06/25 11:05:21;;;;;;;18.77;16.88;;;21.80;82.80;;;;;;4780105;29;20035;-80
2021/06/25 11:07:49;;;;;;;17.60;15.75;;;22.10;82.20;;;;;;4782121;29;20774;-80
2021/06/25 11:10:32;;;;;;;17.65;15.95;;;22.40;81.60;;;;;;4770051;29;20058;-80
2021/06/25 11:13:16;;;;;;;18.70;15.27;;;22.60;80.80;;;;;;4778887;29;20051;-80
2021/06/25 11:15:47;;;;;;;20.27;16.90;;;22.80;80.40;;;;;;4785451;29;20099;-80
2021/06/25 11:18:17;;;;;;;21.55;16.92;;;22.90;79.80;;;;;;4780579;29;20050;-79
2021/06/25 11:21:08;;;;;;;18.90;16.95;;;23.00;79.50;;;;;;4767558;29;20047;-80
2021/06/25 11:23:38;;;;;;;17.60;14.68;;;23.00;78.80;;;;;;4777733;29;20051;-80
2021/06/25 11:26:25;;;;;;;16.88;15.27;;;23.00;78.80;;;;;;4778674;29;20055;-80
2021/06/25 11:28:55;;;;;;;17.02;15.32;;;23.10;78.60;;;;;;4783691;29;20062;-79
2021/06/25 11:31:23;;;;;;;17.05;15.32;;;23.10;78.20;;;;;;4778999;29;20055;-80
2021/06/25 11:36:26;;;;;;;17.45;14.90;;;23.30;78.10;;;;;;4779402;29;20086;-79
2021/06/25 11:38:55;;;;;;;16.95;14.68;;;23.40;78.00;;;;;;4775919;29;20415;-80
2021/06/25 11:41:35;;;;;;;15.63;14.02;;;23.50;77.80;;;;;;4782575;29;20055;-80
2021/06/25 11:44:16;;;;;;;16.77;15.05;;;23.60;77.60;;;;;;4781770;29;20047;-80
2021/06/25 11:46:58;;;;;;;14.18;12.68;;;23.70;77.70;;;;;;4767052;29;20043;-79
2021/06/25 11:49:45;;;;;;;15.93;14.40;;;23.80;77.80;;;;;;4779980;29;20415;-80
2021/06/25 11:52:17;;;;;;;19.90;15.48;;;24.00;77.70;;;;;;4781477;29;20320;-80
2021/06/25 11:55:05;;;;;;;18.02;16.13;;;24.10;76.80;;;;;;4782555;29;20047;-80
2021/06/25 11:57:34;;;;;;;16.77;15.07;;;24.20;76.20;;;;;;4774985;29;20047;-80
2021/06/25 12:00:21;;;;;;;14.90;13.40;;;24.30;76.20;;;;;;4782698;29;20058;-79
2021/06/25 12:02:49;;;;;;;19.05;15.63;;;24.40;76.30;;;;;;4783800;29;20035;-80
2021/06/25 12:05:19;;;;;;;15.77;14.10;;;24.40;76.00;;;;;;4782069;29;20048;-80
2021/06/25 12:07:46;;;;;;;18.75;15.52;;;24.50;76.20;;;;;;4786283;29;20070;-80
2021/06/25 12:10:17;;;;;;;17.70;15.82;;;24.60;75.90;;;;;;4784538;29;20059;-80
2021/06/25 12:12:44;;;;;;;15.93;14.23;;;24.70;75.70;;;;;;4781808;29;21303;-80
2021/06/25 12:15:13;;;;;;;19.30;17.30;;;24.90;75.70;;;;;;4783964;29;20047;-80
2021/06/25 12:17:47;;;;;;;16.48;14.85;;;25.10;75.00;;;;;;4783430;29;20054;-80
2021/06/25 12:20:24;;;;;;;18.27;15.80;;;25.30;74.70;;;;;;4782122;29;20048;-80
2021/06/25 12:22:50;;;;;;;17.60;15.85;;;25.40;74.30;;;;;;4784986;29;20035;-80
2021/06/25 12:25:46;;;;;;;15.98;14.32;;;25.40;73.80;;;;;;4782196;29;20047;-80
2021/06/25 12:28:15;;;;;;;15.98;14.40;;;25.40;73.90;;;;;;4785708;29;20039;-80
2021/06/25 12:30:47;;;;;;;15.20;12.25;;;25.40;73.90;;;;;;4782988;29;20042;-80
2021/06/25 12:33:15;;;;;;;13.85;12.55;;;25.40;73.30;;;;;;4781512;29;20094;-80
2021/06/25 12:35:50;;;;;;;11.63;10.48;;;25.20;73.00;;;;;;4781939;29;20034;-80
2021/06/25 12:38:19;;;;;;;12.68;11.40;;;25.10;72.90;;;;;;4784215;29;20042;-80
2021/06/25 12:40:54;;;;;;;16.35;12.48;;;25.00;73.00;;;;;;4772546;29;20035;-80
2021/06/25 12:43:33;;;;;;;11.73;9.93;;;25.00;73.30;;;;;;4784022;29;20039;-80
2021/06/25 12:46:10;;;;;;;13.13;11.30;;;24.90;73.30;;;;;;4781508;29;20046;-80
2021/06/25 12:48:45;;;;;;;12.68;10.38;;;24.90;72.80;;;;;;4784078;29;20043;-79
2021/06/25 12:51:30;;;;;;;11.18;9.48;;;25.00;72.50;;;;;;4782082;29;20035;-79
2021/06/25 12:53:58;;;;;;;11.95;9.52;;;25.00;71.80;;;;;;4787191;29;20051;-80